sensor_id;sensor_type;location;lat;lon;timestamp;pressure;altitude;pressure_sealevel;temperature;humidity
58919;BME280;44704;50.122;19.932;2023-01-28T00:00:36;98792.63;;;-1.92;81.50
58919;BME280;44704;50.122;19.932;2023-01-28T00:03:22;98787.83;;;-1.92;81.67
58919;BME280;44704;50.122;19.932;2023-01-28T00:05:51;98784.15;;;-1.92;81.73
58919;BME280;44704;50.122;19.932;2023-01-28T00:08:19;98784.23;;;-1.93;81.92
58919;BME280;44704;50.122;19.932;2023-01-28T00:10:46;98782.86;;;-1.92;81.71
58919;BME280;44704;50.122;19.932;2023-01-28T00:13:13;98788.20;;;-1.92;81.55
58919;BME280;44704;50.122;19.932;2023-01-28T00:15:40;98788.27;;;-1.93;81.60
58919;BME280;44704;50.122;19.932;2023-01-28T00:18:07;98790.81;;;-1.91;81.55
58919;BME280;44704;50.122;19.932;2023-01-28T00:20:35;98789.44;;;-1.92;81.38
58919;BME280;44704;50.122;19.932;2023-01-28T00:23:01;98794.77;;;-1.92;81.67
58919;BME280;44704;50.122;19.932;2023-01-28T00:25:29;98790.38;;;-1.90;81.42
58919;BME280;44704;50.122;19.932;2023-01-28T00:27:56;98792.35;;;-1.90;81.60
58919;BME280;44704;50.122;19.932;2023-01-28T00:30:23;98798.27;;;-1.91;81.20
58919;BME280;44704;50.122;19.932;2023-01-28T00:32:52;98799.56;;;-1.93;81.39
58919;BME280;44704;50.122;19.932;2023-01-28T00:35:19;98797.04;;;-1.93;81.73
58919;BME280;44704;50.122;19.932;2023-01-28T00:37:46;98797.03;;;-1.93;81.75
58919;BME280;44704;50.122;19.932;2023-01-28T00:40:13;98799.91;;;-1.92;81.85
58919;BME280;44704;50.122;19.932;2023-01-28T00:42:40;98799.09;;;-1.90;81.69
58919;BME280;44704;50.122;19.932;2023-01-28T00:45:07;98804.14;;;-1.89;81.72
58919;BME280;44704;50.122;19.932;2023-01-28T00:47:34;98803.08;;;-1.87;81.60
58919;BME280;44704;50.122;19.932;2023-01-28T00:50:02;98804.23;;;-1.86;81.57
58919;BME280;44704;50.122;19.932;2023-01-28T00:52:31;98804.05;;;-1.85;81.58
58919;BME280;44704;50.122;19.932;2023-01-28T00:54:58;98805.27;;;-1.84;81.30
58919;BME280;44704;50.122;19.932;2023-01-28T00:57:26;98801.38;;;-1.83;81.45
58919;BME280;44704;50.122;19.932;2023-01-28T00:59:52;98800.42;;;-1.82;81.37
58919;BME280;44704;50.122;19.932;2023-01-28T01:02:22;98797.41;;;-1.82;81.41
58919;BME280;44704;50.122;19.932;2023-01-28T01:04:49;98799.83;;;-1.83;81.11
58919;BME280;44704;50.122;19.932;2023-01-28T01:07:28;98801.33;;;-1.84;81.62
58919;BME280;44704;50.122;19.932;2023-01-28T01:10:00;98802.27;;;-1.84;81.30
58919;BME280;44704;50.122;19.932;2023-01-28T01:12:28;98802.27;;;-1.85;81.54
58919;BME280;44704;50.122;19.932;2023-01-28T01:14:56;98803.50;;;-1.85;81.45
58919;BME280;44704;50.122;19.932;2023-01-28T01:17:23;98802.14;;;-1.83;81.63
58919;BME280;44704;50.122;19.932;2023-01-28T01:19:51;98806.34;;;-1.83;81.49
58919;BME280;44704;50.122;19.932;2023-01-28T01:22:17;98807.66;;;-1.85;81.61
58919;BME280;44704;50.122;19.932;2023-01-28T01:24:46;98810.16;;;-1.85;81.37
58919;BME280;44704;50.122;19.932;2023-01-28T01:27:14;98809.80;;;-1.85;81.66
58919;BME280;44704;50.122;19.932;2023-01-28T01:29:41;98813.07;;;-1.84;81.84
58919;BME280;44704;50.122;19.932;2023-01-28T01:32:08;98814.00;;;-1.85;81.43
58919;BME280;44704;50.122;19.932;2023-01-28T01:34:35;98815.09;;;-1.86;81.56
58919;BME280;44704;50.122;19.932;2023-01-28T01:37:02;98815.19;;;-1.87;81.87
58919;BME280;44704;50.122;19.932;2023-01-28T01:39:31;98819.63;;;-1.87;82.16
58919;BME280;44704;50.122;19.932;2023-01-28T01:41:59;98820.63;;;-1.87;81.97
58919;BME280;44704;50.122;19.932;2023-01-28T01:45:06;98818.33;;;-1.87;82.01
58919;BME280;44704;50.122;19.932;2023-01-28T01:47:38;98823.92;;;-1.87;82.16
58919;BME280;44704;50.122;19.932;2023-01-28T01:50:20;98824.45;;;-1.88;82.35
58919;BME280;44704;50.122;19.932;2023-01-28T01:52:52;98825.79;;;-1.89;81.79
58919;BME280;44704;50.122;19.932;2023-01-28T01:55:23;98825.58;;;-1.86;82.08
58919;BME280;44704;50.122;19.932;2023-01-28T01:57:54;98825.64;;;-1.85;82.23
58919;BME280;44704;50.122;19.932;2023-01-28T02:00:23;98826.92;;;-1.84;82.27
58919;BME280;44704;50.122;19.932;2023-01-28T02:02:51;98826.75;;;-1.84;82.03
58919;BME280;44704;50.122;19.932;2023-01-28T02:05:21;98828.06;;;-1.85;82.04
58919;BME280;44704;50.122;19.932;2023-01-28T02:07:53;98830.38;;;-1.85;82.35
58919;BME280;44704;50.122;19.932;2023-01-28T02:10:57;98828.08;;;-1.85;82.01
58919;BME280;44704;50.122;19.932;2023-01-28T02:13:26;98830.17;;;-1.86;82.36
58919;BME280;44704;50.122;19.932;2023-01-28T02:15:55;98831.55;;;-1.86;82.15
58919;BME280;44704;50.122;19.932;2023-01-28T02:18:24;98834.61;;;-1.87;82.20
58919;BME280;44704;50.122;19.932;2023-01-28T02:31:39;98836.10;;;-1.88;82.50
58919;BME280;44704;50.122;19.932;2023-01-28T02:34:16;98834.07;;;-1.88;82.56
58919;BME280;44704;50.122;19.932;2023-01-28T02:36:57;98833.55;;;-1.90;82.50
58919;BME280;44704;50.122;19.932;2023-01-28T02:39:29;98830.98;;;-1.91;82.87
58919;BME280;44704;50.122;19.932;2023-01-28T02:42:05;98828.54;;;-1.91;82.69
58919;BME280;44704;50.122;19.932;2023-01-28T02:44:33;98831.55;;;-1.91;82.61
58919;BME280;44704;50.122;19.932;2023-01-28T02:47:01;98834.13;;;-1.90;82.69
58919;BME280;44704;50.122;19.932;2023-01-28T02:49:48;98836.82;;;-1.91;82.55
58919;BME280;44704;50.122;19.932;2023-01-28T02:58:06;98835.54;;;-1.86;82.66
58919;BME280;44704;50.122;19.932;2023-01-28T03:00:48;98839.23;;;-1.86;82.67
58919;BME280;44704;50.122;19.932;2023-01-28T03:03:26;98838.98;;;-1.87;83.04
58919;BME280;44704;50.122;19.932;2023-01-28T03:06:01;98840.14;;;-1.88;83.05
58919;BME280;44704;50.122;19.932;2023-01-28T03:08:57;98839.94;;;-1.91;82.95
58919;BME280;44704;50.122;19.932;2023-01-28T03:11:54;98838.86;;;-1.95;83.08
58919;BME280;44704;50.122;19.932;2023-01-28T03:14:42;98840.65;;;-1.96;83.41
58919;BME280;44704;50.122;19.932;2023-01-28T03:21:04;98837.20;;;-1.98;83.34
58919;BME280;44704;50.122;19.932;2023-01-28T03:23:56;98834.32;;;-1.99;83.17
58919;BME280;44704;50.122;19.932;2023-01-28T03:26:55;98832.77;;;-2.00;83.17
58919;BME280;44704;50.122;19.932;2023-01-28T03:29:43;98832.74;;;-1.99;83.35
58919;BME280;44704;50.122;19.932;2023-01-28T03:32:31;98834.16;;;-1.99;83.37
58919;BME280;44704;50.122;19.932;2023-01-28T03:35:21;98836.45;;;-1.99;83.10
58919;BME280;44704;50.122;19.932;2023-01-28T03:38:08;98841.86;;;-1.98;83.25
58919;BME280;44704;50.122;19.932;2023-01-28T03:40:59;98841.30;;;-1.98;83.59
58919;BME280;44704;50.122;19.932;2023-01-28T03:43:27;98840.01;;;-1.96;83.49
58919;BME280;44704;50.122;19.932;2023-01-28T03:45:55;98841.92;;;-1.94;83.55
58919;BME280;44704;50.122;19.932;2023-01-28T03:48:24;98840.35;;;-1.92;83.20
58919;BME280;44704;50.122;19.932;2023-01-28T03:50:54;98836.51;;;-1.91;83.60
58919;BME280;44704;50.122;19.932;2023-01-28T03:53:22;98843.26;;;-1.89;83.27
58919;BME280;44704;50.122;19.932;2023-01-28T03:55:52;98840.98;;;-1.87;83.31
58919;BME280;44704;50.122;19.932;2023-01-28T03:58:23;98844.52;;;-1.87;83.40
58919;BME280;44704;50.122;19.932;2023-01-28T04:01:13;98847.69;;;-1.87;83.26
58919;BME280;44704;50.122;19.932;2023-01-28T04:03:40;98845.20;;;-1.89;83.32
58919;BME280;44704;50.122;19.932;2023-01-28T04:06:12;98846.73;;;-1.90;83.20
58919;BME280;44704;50.122;19.932;2023-01-28T04:08:55;98847.70;;;-1.91;83.12
58919;BME280;44704;50.122;19.932;2023-01-28T04:11:43;98843.35;;;-1.90;83.32
58919;BME280;44704;50.122;19.932;2023-01-28T04:14:13;98843.29;;;-1.91;83.66
58919;BME280;44704;50.122;19.932;2023-01-28T04:16:53;98846.80;;;-1.91;83.51
58919;BME280;44704;50.122;19.932;2023-01-28T04:19:21;98850.45;;;-1.92;83.39
58919;BME280;44704;50.122;19.932;2023-01-28T04:21:49;98851.21;;;-1.92;83.84
58919;BME280;44704;50.122;19.932;2023-01-28T04:24:16;98850.11;;;-1.92;83.64
58919;BME280;44704;50.122;19.932;2023-01-28T04:26:43;98848.83;;;-1.91;83.61
58919;BME280;44704;50.122;19.932;2023-01-28T04:29:10;98848.36;;;-1.92;83.41
58919;BME280;44704;50.122;19.932;2023-01-28T04:31:37;98847.23;;;-1.93;83.46
58919;BME280;44704;50.122;19.932;2023-01-28T04:34:22;98853.45;;;-1.93;83.53
58919;BME280;44704;50.122;19.932;2023-01-28T04:37:12;98855.23;;;-1.95;83.36
58919;BME280;44704;50.122;19.932;2023-01-28T04:40:06;98858.59;;;-1.95;83.46
58919;BME280;44704;50.122;19.932;2023-01-28T04:42:54;98858.89;;;-1.96;83.50
58919;BME280;44704;50.122;19.932;2023-01-28T04:45:37;98858.00;;;-1.96;83.55
58919;BME280;44704;50.122;19.932;2023-01-28T04:48:33;98859.61;;;-1.96;83.15
58919;BME280;44704;50.122;19.932;2023-01-28T04:51:31;98864.67;;;-1.95;83.38
58919;BME280;44704;50.122;19.932;2023-01-28T04:54:10;98862.32;;;-1.94;83.23
58919;BME280;44704;50.122;19.932;2023-01-28T04:56:38;98860.94;;;-1.93;83.17
58919;BME280;44704;50.122;19.932;2023-01-28T04:59:05;98860.52;;;-1.92;83.29
58919;BME280;44704;50.122;19.932;2023-01-28T05:01:33;98863.20;;;-1.91;82.93
58919;BME280;44704;50.122;19.932;2023-01-28T05:04:00;98863.09;;;-1.90;83.21
58919;BME280;44704;50.122;19.932;2023-01-28T05:06:32;98865.02;;;-1.89;83.16
58919;BME280;44704;50.122;19.932;2023-01-28T05:09:04;98865.70;;;-1.91;82.84
58919;BME280;44704;50.122;19.932;2023-01-28T05:11:31;98869.37;;;-1.92;82.67
58919;BME280;44704;50.122;19.932;2023-01-28T05:14:02;98876.05;;;-1.95;82.70
58919;BME280;44704;50.122;19.932;2023-01-28T05:16:34;98880.58;;;-1.96;82.79
58919;BME280;44704;50.122;19.932;2023-01-28T05:19:02;98882.67;;;-1.97;82.56
58919;BME280;44704;50.122;19.932;2023-01-28T05:21:34;98881.40;;;-1.98;82.97
58919;BME280;44704;50.122;19.932;2023-01-28T05:24:05;98879.42;;;-2.00;82.85
58919;BME280;44704;50.122;19.932;2023-01-28T05:26:33;98883.34;;;-2.00;83.03
58919;BME280;44704;50.122;19.932;2023-01-28T05:29:00;98883.42;;;-1.99;83.16
58919;BME280;44704;50.122;19.932;2023-01-28T05:31:27;98884.67;;;-1.97;82.82
58919;BME280;44704;50.122;19.932;2023-01-28T05:33:54;98882.73;;;-1.97;82.75
58919;BME280;44704;50.122;19.932;2023-01-28T05:36:22;98884.83;;;-1.99;82.81
58919;BME280;44704;50.122;19.932;2023-01-28T05:38:50;98885.14;;;-2.00;82.66
58919;BME280;44704;50.122;19.932;2023-01-28T05:41:17;98889.55;;;-2.00;82.54
58919;BME280;44704;50.122;19.932;2023-01-28T05:43:46;98889.19;;;-2.00;82.71
58919;BME280;44704;50.122;19.932;2023-01-28T05:46:43;98886.87;;;-2.00;82.73
58919;BME280;44704;50.122;19.932;2023-01-28T05:49:30;98889.32;;;-2.01;82.73
58919;BME280;44704;50.122;19.932;2023-01-28T05:52:24;98893.39;;;-2.03;82.79
58919;BME280;44704;50.122;19.932;2023-01-28T05:54:51;98896.55;;;-2.04;82.81
58919;BME280;44704;50.122;19.932;2023-01-28T05:57:18;98899.59;;;-2.04;82.93
58919;BME280;44704;50.122;19.932;2023-01-28T05:59:45;98903.91;;;-2.03;82.82
58919;BME280;44704;50.122;19.932;2023-01-28T06:02:12;98909.91;;;-2.02;82.82
58919;BME280;44704;50.122;19.932;2023-01-28T06:04:39;98909.65;;;-2.01;83.13
58919;BME280;44704;50.122;19.932;2023-01-28T06:07:06;98911.41;;;-2.01;82.91
58919;BME280;44704;50.122;19.932;2023-01-28T06:09:34;98919.69;;;-2.02;82.78
58919;BME280;44704;50.122;19.932;2023-01-28T06:12:01;98922.41;;;-2.03;82.81
58919;BME280;44704;50.122;19.932;2023-01-28T06:14:29;98923.62;;;-2.03;82.94
58919;BME280;44704;50.122;19.932;2023-01-28T06:17:10;98929.27;;;-2.02;82.56
58919;BME280;44704;50.122;19.932;2023-01-28T06:20:00;98929.10;;;-2.00;82.94
58919;BME280;44704;50.122;19.932;2023-01-28T06:22:30;98934.05;;;-2.00;83.27
58919;BME280;44704;50.122;19.932;2023-01-28T06:24:57;98940.08;;;-1.98;83.02
58919;BME280;44704;50.122;19.932;2023-01-28T06:27:24;98942.11;;;-1.99;82.96
58919;BME280;44704;50.122;19.932;2023-01-28T06:29:50;98942.36;;;-1.98;82.81
58919;BME280;44704;50.122;19.932;2023-01-28T06:32:17;98941.49;;;-1.96;82.90
58919;BME280;44704;50.122;19.932;2023-01-28T06:34:44;98945.45;;;-1.95;82.65
58919;BME280;44704;50.122;19.932;2023-01-28T06:37:12;98948.52;;;-1.94;82.84
58919;BME280;44704;50.122;19.932;2023-01-28T06:39:39;98950.10;;;-1.93;82.79
58919;BME280;44704;50.122;19.932;2023-01-28T06:42:06;98950.42;;;-1.95;82.76
58919;BME280;44704;50.122;19.932;2023-01-28T06:44:33;98950.30;;;-1.95;82.40
58919;BME280;44704;50.122;19.932;2023-01-28T06:47:00;98955.14;;;-1.96;82.62
58919;BME280;44704;50.122;19.932;2023-01-28T06:49:27;98960.34;;;-1.96;82.86
58919;BME280;44704;50.122;19.932;2023-01-28T06:51:54;98958.84;;;-1.95;82.74
58919;BME280;44704;50.122;19.932;2023-01-28T06:54:21;98959.52;;;-1.95;82.40
58919;BME280;44704;50.122;19.932;2023-01-28T06:56:48;98960.08;;;-1.95;82.35
58919;BME280;44704;50.122;19.932;2023-01-28T06:59:14;98962.66;;;-1.94;82.17
58919;BME280;44704;50.122;19.932;2023-01-28T07:01:41;98963.90;;;-1.94;82.26
58919;BME280;44704;50.122;19.932;2023-01-28T07:04:08;98965.31;;;-1.93;82.65
58919;BME280;44704;50.122;19.932;2023-01-28T07:06:35;98969.34;;;-1.90;82.78
58919;BME280;44704;50.122;19.932;2023-01-28T07:09:02;98973.23;;;-1.88;82.36
58919;BME280;44704;50.122;19.932;2023-01-28T07:11:29;98974.77;;;-1.87;82.63
58919;BME280;44704;50.122;19.932;2023-01-28T07:13:56;98975.08;;;-1.87;82.43
58919;BME280;44704;50.122;19.932;2023-01-28T07:16:23;98979.42;;;-1.89;81.79
58919;BME280;44704;50.122;19.932;2023-01-28T07:18:49;98981.35;;;-1.91;82.15
58919;BME280;44704;50.122;19.932;2023-01-28T07:21:16;98988.77;;;-1.90;81.90
58919;BME280;44704;50.122;19.932;2023-01-28T07:23:44;98981.67;;;-1.91;81.97
58919;BME280;44704;50.122;19.932;2023-01-28T07:26:11;98986.24;;;-1.88;82.17
58919;BME280;44704;50.122;19.932;2023-01-28T07:28:38;98991.17;;;-1.86;81.99
58919;BME280;44704;50.122;19.932;2023-01-28T07:31:04;98994.61;;;-1.85;81.88
58919;BME280;44704;50.122;19.932;2023-01-28T07:33:32;98996.55;;;-1.84;81.65
58919;BME280;44704;50.122;19.932;2023-01-28T07:35:58;98997.77;;;-1.84;81.54
58919;BME280;44704;50.122;19.932;2023-01-28T07:38:25;98998.56;;;-1.80;81.90
58919;BME280;44704;50.122;19.932;2023-01-28T07:40:52;99000.37;;;-1.76;81.35
58919;BME280;44704;50.122;19.932;2023-01-28T07:43:19;98999.98;;;-1.74;81.39
58919;BME280;44704;50.122;19.932;2023-01-28T07:45:49;98999.88;;;-1.71;81.55
58919;BME280;44704;50.122;19.932;2023-01-28T07:48:16;98995.17;;;-1.71;81.28
58919;BME280;44704;50.122;19.932;2023-01-28T07:50:43;98994.27;;;-1.70;80.96
58919;BME280;44704;50.122;19.932;2023-01-28T07:53:11;98995.16;;;-1.70;81.04
58919;BME280;44704;50.122;19.932;2023-01-28T07:55:37;98997.24;;;-1.70;81.19
58919;BME280;44704;50.122;19.932;2023-01-28T07:58:06;98998.38;;;-1.69;81.04
58919;BME280;44704;50.122;19.932;2023-01-28T08:00:35;98999.77;;;-1.68;80.91
58919;BME280;44704;50.122;19.932;2023-01-28T08:03:05;98997.05;;;-1.66;81.22
58919;BME280;44704;50.122;19.932;2023-01-28T08:05:39;99000.48;;;-1.63;81.08
58919;BME280;44704;50.122;19.932;2023-01-28T08:08:08;99005.97;;;-1.57;81.30
58919;BME280;44704;50.122;19.932;2023-01-28T08:10:35;99005.88;;;-1.53;81.37
58919;BME280;44704;50.122;19.932;2023-01-28T08:13:03;99008.58;;;-1.49;81.18
58919;BME280;44704;50.122;19.932;2023-01-28T08:15:30;99010.20;;;-1.48;80.81
58919;BME280;44704;50.122;19.932;2023-01-28T08:17:57;99012.05;;;-1.47;80.73
58919;BME280;44704;50.122;19.932;2023-01-28T08:20:26;99012.08;;;-1.45;80.77
58919;BME280;44704;50.122;19.932;2023-01-28T08:22:53;99014.42;;;-1.46;80.51
58919;BME280;44704;50.122;19.932;2023-01-28T08:25:20;99010.33;;;-1.47;80.72
58919;BME280;44704;50.122;19.932;2023-01-28T08:27:47;99014.45;;;-1.46;80.93
58919;BME280;44704;50.122;19.932;2023-01-28T08:30:14;99011.31;;;-1.45;81.07
58919;BME280;44704;50.122;19.932;2023-01-28T08:32:40;99013.63;;;-1.45;80.47
58919;BME280;44704;50.122;19.932;2023-01-28T08:35:07;99015.88;;;-1.46;80.76
58919;BME280;44704;50.122;19.932;2023-01-28T08:37:34;99017.52;;;-1.46;79.97
58919;BME280;44704;50.122;19.932;2023-01-28T08:40:01;99019.73;;;-1.47;80.00
58919;BME280;44704;50.122;19.932;2023-01-28T08:42:28;99021.70;;;-1.47;79.87
58919;BME280;44704;50.122;19.932;2023-01-28T08:44:55;99022.11;;;-1.48;80.00
58919;BME280;44704;50.122;19.932;2023-01-28T08:47:22;99026.41;;;-1.46;80.08
58919;BME280;44704;50.122;19.932;2023-01-28T08:49:48;99022.02;;;-1.45;80.23
58919;BME280;44704;50.122;19.932;2023-01-28T08:52:15;99023.98;;;-1.43;79.89
58919;BME280;44704;50.122;19.932;2023-01-28T08:54:42;99028.48;;;-1.42;79.98
58919;BME280;44704;50.122;19.932;2023-01-28T08:57:09;99029.79;;;-1.41;80.29
58919;BME280;44704;50.122;19.932;2023-01-28T08:59:36;99034.64;;;-1.38;79.95
58919;BME280;44704;50.122;19.932;2023-01-28T09:02:13;99031.23;;;-1.36;79.76
58919;BME280;44704;50.122;19.932;2023-01-28T09:04:40;99033.26;;;-1.35;79.81
58919;BME280;44704;50.122;19.932;2023-01-28T09:07:07;99032.52;;;-1.32;79.77
58919;BME280;44704;50.122;19.932;2023-01-28T09:09:34;99033.02;;;-1.32;79.50
58919;BME280;44704;50.122;19.932;2023-01-28T09:12:01;99035.21;;;-1.31;79.58
58919;BME280;44704;50.122;19.932;2023-01-28T09:14:28;99035.78;;;-1.29;79.57
58919;BME280;44704;50.122;19.932;2023-01-28T09:16:55;99031.25;;;-1.29;79.35
58919;BME280;44704;50.122;19.932;2023-01-28T09:19:22;99035.18;;;-1.27;79.21
58919;BME280;44704;50.122;19.932;2023-01-28T09:21:49;99033.48;;;-1.26;79.41
58919;BME280;44704;50.122;19.932;2023-01-28T09:24:15;99038.77;;;-1.25;79.29
58919;BME280;44704;50.122;19.932;2023-01-28T09:26:43;99038.23;;;-1.25;79.51
58919;BME280;44704;50.122;19.932;2023-01-28T09:29:11;99040.56;;;-1.26;79.60
58919;BME280;44704;50.122;19.932;2023-01-28T09:31:39;99042.23;;;-1.24;79.35
58919;BME280;44704;50.122;19.932;2023-01-28T09:34:06;99039.20;;;-1.24;79.07
58919;BME280;44704;50.122;19.932;2023-01-28T09:36:34;99037.36;;;-1.25;79.12
58919;BME280;44704;50.122;19.932;2023-01-28T09:39:01;99039.54;;;-1.24;79.35
58919;BME280;44704;50.122;19.932;2023-01-28T09:47:03;99034.44;;;-1.20;78.88
58919;BME280;44704;50.122;19.932;2023-01-28T09:49:33;99037.73;;;-1.15;79.23
58919;BME280;44704;50.122;19.932;2023-01-28T09:52:01;99035.50;;;-1.11;79.19
58919;BME280;44704;50.122;19.932;2023-01-28T09:54:37;99034.85;;;-1.08;78.95
58919;BME280;44704;50.122;19.932;2023-01-28T09:57:12;99034.33;;;-1.06;78.99
58919;BME280;44704;50.122;19.932;2023-01-28T09:59:42;99035.56;;;-1.06;78.94
58919;BME280;44704;50.122;19.932;2023-01-28T10:02:36;99034.03;;;-1.05;78.97
58919;BME280;44704;50.122;19.932;2023-01-28T10:11:02;99031.25;;;-1.02;78.58
58919;BME280;44704;50.122;19.932;2023-01-28T10:13:58;99030.79;;;-1.02;78.45
58919;BME280;44704;50.122;19.932;2023-01-28T10:19:04;99029.41;;;-0.95;78.67
58919;BME280;44704;50.122;19.932;2023-01-28T10:21:40;99028.70;;;-0.95;78.06
58919;BME280;44704;50.122;19.932;2023-01-28T10:24:18;99028.61;;;-0.97;78.39
58919;BME280;44704;50.122;19.932;2023-01-28T10:26:50;99027.86;;;-0.97;78.07
58919;BME280;44704;50.122;19.932;2023-01-28T10:29:21;99030.60;;;-0.94;78.41
58919;BME280;44704;50.122;19.932;2023-01-28T10:31:54;99028.85;;;-0.91;78.21
58919;BME280;44704;50.122;19.932;2023-01-28T10:34:22;99031.44;;;-0.88;78.28
58919;BME280;44704;50.122;19.932;2023-01-28T10:36:50;99030.07;;;-0.89;77.86
58919;BME280;44704;50.122;19.932;2023-01-28T10:39:20;99030.81;;;-0.92;77.22
58919;BME280;44704;50.122;19.932;2023-01-28T10:41:48;99026.48;;;-0.98;76.98
58919;BME280;44704;50.122;19.932;2023-01-28T10:44:27;99026.15;;;-1.01;76.63
58919;BME280;44704;50.122;19.932;2023-01-28T10:47:00;99026.05;;;-1.09;76.57
58919;BME280;44704;50.122;19.932;2023-01-28T10:49:30;99029.58;;;-1.12;77.25
58919;BME280;44704;50.122;19.932;2023-01-28T10:51:58;99026.92;;;-1.09;77.30
58919;BME280;44704;50.122;19.932;2023-01-28T10:54:36;99024.05;;;-0.98;78.71
58919;BME280;44704;50.122;19.932;2023-01-28T10:57:06;99025.41;;;-0.96;77.80
58919;BME280;44704;50.122;19.932;2023-01-28T10:59:36;99025.66;;;-0.93;77.58
58919;BME280;44704;50.122;19.932;2023-01-28T11:02:30;99020.38;;;-0.95;77.06
58919;BME280;44704;50.122;19.932;2023-01-28T11:05:03;99018.67;;;-0.92;77.41
58919;BME280;44704;50.122;19.932;2023-01-28T11:07:32;99017.16;;;-0.90;77.07
58919;BME280;44704;50.122;19.932;2023-01-28T11:09:59;99013.58;;;-0.90;76.95
58919;BME280;44704;50.122;19.932;2023-01-28T11:12:28;99019.75;;;-0.87;77.19
58919;BME280;44704;50.122;19.932;2023-01-28T11:15:00;99017.96;;;-0.86;76.89
58919;BME280;44704;50.122;19.932;2023-01-28T11:17:33;99021.49;;;-0.87;77.08
58919;BME280;44704;50.122;19.932;2023-01-28T11:20:16;99019.38;;;-0.89;77.15
58919;BME280;44704;50.122;19.932;2023-01-28T11:22:45;99019.58;;;-0.93;77.41
58919;BME280;44704;50.122;19.932;2023-01-28T11:25:23;99012.38;;;-0.96;77.36
58919;BME280;44704;50.122;19.932;2023-01-28T11:27:52;99013.23;;;-0.97;77.24
58919;BME280;44704;50.122;19.932;2023-01-28T11:30:38;99008.77;;;-0.97;77.56
58919;BME280;44704;50.122;19.932;2023-01-28T11:36:03;99010.25;;;-0.96;77.41
58919;BME280;44704;50.122;19.932;2023-01-28T11:38:30;99008.51;;;-0.96;77.71
58919;BME280;44704;50.122;19.932;2023-01-28T11:40:57;99004.64;;;-0.95;77.81
58919;BME280;44704;50.122;19.932;2023-01-28T11:43:28;99000.39;;;-0.95;77.63
58919;BME280;44704;50.122;19.932;2023-01-28T11:46:40;99004.48;;;-0.95;77.47
58919;BME280;44704;50.122;19.932;2023-01-28T11:57:20;98999.35;;;-1.01;76.84
58919;BME280;44704;50.122;19.932;2023-01-28T12:02:53;98998.33;;;-1.05;77.20
58919;BME280;44704;50.122;19.932;2023-01-28T12:05:45;99000.51;;;-1.03;77.28
58919;BME280;44704;50.122;19.932;2023-01-28T12:13:43;98995.13;;;-0.85;77.41
58919;BME280;44704;50.122;19.932;2023-01-28T12:27:47;98995.26;;;-0.59;76.59
58919;BME280;44704;50.122;19.932;2023-01-28T12:33:41;98994.48;;;-0.55;75.97
58919;BME280;44704;50.122;19.932;2023-01-28T12:39:10;98994.79;;;-0.60;75.20
58919;BME280;44704;50.122;19.932;2023-01-28T12:41:58;98993.13;;;-0.66;74.96
58919;BME280;44704;50.122;19.932;2023-01-28T12:44:36;98993.54;;;-0.71;75.57
58919;BME280;44704;50.122;19.932;2023-01-28T12:47:11;98995.17;;;-0.72;75.77
58919;BME280;44704;50.122;19.932;2023-01-28T12:49:55;98990.00;;;-0.70;76.00
58919;BME280;44704;50.122;19.932;2023-01-28T12:52:34;98994.21;;;-0.68;75.37
58919;BME280;44704;50.122;19.932;2023-01-28T12:55:15;98996.77;;;-0.70;75.31
58919;BME280;44704;50.122;19.932;2023-01-28T12:57:44;98994.61;;;-0.68;75.64
58919;BME280;44704;50.122;19.932;2023-01-28T13:00:37;98997.50;;;-0.67;75.45
58919;BME280;44704;50.122;19.932;2023-01-28T13:03:30;98999.08;;;-0.67;75.22
58919;BME280;44704;50.122;19.932;2023-01-28T13:06:08;99001.17;;;-0.66;75.01
58919;BME280;44704;50.122;19.932;2023-01-28T13:08:38;99003.48;;;-0.68;75.08
58919;BME280;44704;50.122;19.932;2023-01-28T13:11:06;99007.39;;;-0.68;75.31
58919;BME280;44704;50.122;19.932;2023-01-28T13:13:39;99011.09;;;-0.67;75.12
58919;BME280;44704;50.122;19.932;2023-01-28T13:16:10;99011.02;;;-0.67;75.38
58919;BME280;44704;50.122;19.932;2023-01-28T13:24:06;99014.23;;;-0.65;74.74
58919;BME280;44704;50.122;19.932;2023-01-28T13:26:45;99014.77;;;-0.68;75.15
58919;BME280;44704;50.122;19.932;2023-01-28T13:31:49;99015.14;;;-0.68;74.97
58919;BME280;44704;50.122;19.932;2023-01-28T13:34:27;99019.39;;;-0.68;74.87
58919;BME280;44704;50.122;19.932;2023-01-28T13:36:57;99020.04;;;-0.68;75.37
58919;BME280;44704;50.122;19.932;2023-01-28T13:39:26;99022.52;;;-0.67;75.48
58919;BME280;44704;50.122;19.932;2023-01-28T13:42:07;99026.18;;;-0.68;75.30
58919;BME280;44704;50.122;19.932;2023-01-28T13:44:35;99031.48;;;-0.70;75.45
58919;BME280;44704;50.122;19.932;2023-01-28T13:49:37;99030.13;;;-0.68;75.77
58919;BME280;44704;50.122;19.932;2023-01-28T13:52:15;99029.15;;;-0.68;75.81
58919;BME280;44704;50.122;19.932;2023-01-28T13:55:33;99031.91;;;-0.67;75.80
58919;BME280;44704;50.122;19.932;2023-01-28T14:00:27;99035.60;;;-0.65;75.78
58919;BME280;44704;50.122;19.932;2023-01-28T14:17:43;99043.65;;;-0.82;76.78
58919;BME280;44704;50.122;19.932;2023-01-28T14:20:32;99045.86;;;-0.85;77.21
58919;BME280;44704;50.122;19.932;2023-01-28T14:23:05;99047.23;;;-0.86;77.37
58919;BME280;44704;50.122;19.932;2023-01-28T14:28:18;99045.48;;;-0.86;78.00
58919;BME280;44704;50.122;19.932;2023-01-28T14:30:53;99051.89;;;-0.88;77.65
58919;BME280;44704;50.122;19.932;2023-01-28T14:33:23;99053.34;;;-0.91;78.13
58919;BME280;44704;50.122;19.932;2023-01-28T14:35:51;99053.55;;;-0.96;78.64
58919;BME280;44704;50.122;19.932;2023-01-28T14:38:20;99054.11;;;-1.01;79.07
58919;BME280;44704;50.122;19.932;2023-01-28T14:40:49;99055.94;;;-1.03;79.30
58919;BME280;44704;50.122;19.932;2023-01-28T14:43:18;99057.27;;;-1.08;79.24
58919;BME280;44704;50.122;19.932;2023-01-28T14:51:48;99052.90;;;-1.16;80.39
58919;BME280;44704;50.122;19.932;2023-01-28T14:59:42;99062.09;;;-1.20;80.96
58919;BME280;44704;50.122;19.932;2023-01-28T15:02:19;99061.80;;;-1.26;81.40
58919;BME280;44704;50.122;19.932;2023-01-28T15:04:47;99066.00;;;-1.31;81.67
58919;BME280;44704;50.122;19.932;2023-01-28T15:09:42;99069.98;;;-1.35;81.84
58919;BME280;44704;50.122;19.932;2023-01-28T15:12:09;99067.70;;;-1.35;82.09